CYEG/YEG METAR and TAF weather

Enter ICAO airport designator
Station Type Date Time Source
CYEG METAR 2024/04/15 10:00 UTC NOAA

CYEG 151000Z 15009KT 20SM OVC150 08/M04 A2969 RMK AC8 VIRGA ALQDS SLP064


Station Type Date Time Source
CYEG Decoded METAR 2024/04/15 10:00 UTC NOAA

Edmonton International, Alta., Canada (CYEG) 53-18N 113-35W 723M
Apr 15, 2024 - 06:00 AM EDT / 2024.04.15 1000 UTC
Wind: from the SSE (150 degrees) at 10 MPH (9 KT):0
Visibility: 20 mile(s):0
Sky conditions: overcast
Temperature: 46 F (8 C)
Dew Point: 24 F (-4 C)
Relative Humidity: 42%
Pressure (altimeter): 29.69 in. Hg (1005 hPa)
ob: CYEG 151000Z 15009KT 20SM OVC150 08/M04 A2969 RMK AC8 VIRGA ALQDS SLP064
cycle: 10

Station Type Date Time Source
CYEG TAF 2024/04/15 09:43 UTC NOAA